Star Princess — ZCDD6 — position and weather

sailwx.info

Track history (hours):
 
Tides and Currents Weather Stations Pressure Air Temp Water Temp Dewpoint Dewpoint Depression Visibility Wind Speed Wind Dir Waves Ship Positions

Star Princess

Operator: Princess Cruises

Last reported at 2015-Jun-28 20:33 UTC. Time now 2015-Jun-30 16:42 UTC.
Position N 51°38' W 128°51'.

Length 289.6 m; beam 36 m; draft 8.4 m.

Type: Ship. MMSI: 310361000.

Date/timePositionNaut miles runAvg speedWind from/ knotsBaromVisibWave heightAir tempDewpointWater temp
2015-Jun-28 20:33N 51°38' W 128°51'1615.8
2015-Jun-28 19:33N 51°26' W 128°35'1715.7
2015-Jun-28 18:30N 51°13' W 128°19'1515.8
2015-Jun-28 17:33N 51°04' W 127°60'1414.4
2015-Jun-28 16:34N 50°56' W 127°41'8015.3
2015-Jun-28 11:19N 50°23' W 125°47'8611.9
2015-Jun-28 04:05N 49°27' W 124°05'711.9
2015-Jun-28 03:31N 49°23' W 123°57'1112.1
2015-Jun-28 02:33N 49°19' W 123°40'1211.7
2015-Jun-28 01:33N 49°17' W 123°23'1110.6
2015-Jun-28 00:33N 49°18' W 123°07'1 0.8
2015-Jun-27 23:31N 49°17' W 123°06'0 0.0
2015-Jun-27 22:31N 49°17' W 123°06'0 0.0
2015-Jun-27 21:31N 49°17' W 123°06'0 0.0
2015-Jun-27 20:33N 49°17' W 123°06'0 0.0
2015-Jun-27 19:33N 49°17' W 123°06'0 0.0
2015-Jun-27 18:32N 49°17' W 123°06'0 0.0
2015-Jun-27 17:29N 49°17' W 123°06'0 0.0
2015-Jun-27 16:31N 49°17' W 123°06'0 0.0
2015-Jun-27 15:28N 49°17' W 123°06'0 0.0
2015-Jun-27 14:34N 49°17' W 123°06'0 0.1
2015-Jun-27 13:33N 49°17' W 123°06'9 8.6
2015-Jun-27 12:33N 49°18' W 123°19'1111.2
2015-Jun-27 11:33N 49°18' W 123°37'1111.4
2015-Jun-27 10:33N 49°21' W 123°54'1111.4
2015-Jun-27 09:33N 49°24' W 124°10'1211.5
2015-Jun-27 08:33N 49°28' W 124°27'1211.8
2015-Jun-27 07:33N 49°37' W 124°39'1211.9
2015-Jun-27 06:33N 49°46' W 124°52'1211.3
2015-Jun-27 05:32N 49°54' W 125°04'1211.9
2015-Jun-27 04:31N 50°04' W 125°15'1212.7
2015-Jun-27 03:33N 50°15' W 125°23'4615.3
2015-Jun-27 00:33N 50°30' W 126°31'1615.5
2015-Jun-26 23:30N 50°35' W 126°56'1313.4
2015-Jun-26 22:33N 50°40' W 127°14'1716.9
2015-Jun-26 21:33N 50°52' W 127°33'1515.2
2015-Jun-26 20:34N 51°01' W 127°51'1616.4
2015-Jun-26 19:33N 51°09' W 128°14'  
2015-Jun-22 18:31N 58°42' W 136°14'1515.6
2015-Jun-22 17:33N 58°29' W 136°03'9 9.0
2015-Jun-22 16:33N 58°20' W 136°06'12610.9
2015-Jun-22 05:00N 59°18' W 139°42'65 6.5 290 / 201020.410.8 1.513.011.312.0
2015-Jun-21 19:00N 59°30' W 141°48'   290 / 121024.910.8 1.015.011.614.0
2015-Jun-19 06:00N 58°36' W 139°12'9717.3 130 / 81017.610.8 0.513.510.915.0
2015-Jun-19 00:25N 58°19' W 136°10'911.0
2015-Jun-18 23:33N 58°27' W 136°01'1515.0
2015-Jun-18 22:33N 58°41' W 136°11'  
Track history (hours):
 
Tides and Currents Weather Stations Pressure Air Temp Water Temp Dewpoint Dewpoint Depression Visibility Wind Speed Wind Dir Waves Ship Positions

Star Princess

Operator: Princess Cruises

Last reported at 2015-Jun-28 20:33 UTC. Time now 2015-Jun-30 16:42 UTC.
Position N 51°38' W 128°51'.

Length 289.6 m; beam 36 m; draft 8.4 m.

Type: Ship. MMSI: 310361000.

Date/timePositionNaut miles runAvg speedWind from/ knotsBaromVisibWave heightAir tempDewpointWater temp
2015-Jun-28 20:33N 51°38' W 128°51'1615.8
2015-Jun-28 19:33N 51°26' W 128°35'1715.7
2015-Jun-28 18:30N 51°13' W 128°19'1515.8
2015-Jun-28 17:33N 51°04' W 127°60'1414.4
2015-Jun-28 16:34N 50°56' W 127°41'8015.3
2015-Jun-28 11:19N 50°23' W 125°47'8611.9
2015-Jun-28 04:05N 49°27' W 124°05'711.9
2015-Jun-28 03:31N 49°23' W 123°57'1112.1
2015-Jun-28 02:33N 49°19' W 123°40'1211.7
2015-Jun-28 01:33N 49°17' W 123°23'1110.6
2015-Jun-28 00:33N 49°18' W 123°07'1 0.8
2015-Jun-27 23:31N 49°17' W 123°06'0 0.0
2015-Jun-27 22:31N 49°17' W 123°06'0 0.0
2015-Jun-27 21:31N 49°17' W 123°06'0 0.0
2015-Jun-27 20:33N 49°17' W 123°06'0 0.0
2015-Jun-27 19:33N 49°17' W 123°06'0 0.0
2015-Jun-27 18:32N 49°17' W 123°06'0 0.0
2015-Jun-27 17:29N 49°17' W 123°06'0 0.0
2015-Jun-27 16:31N 49°17' W 123°06'0 0.0
2015-Jun-27 15:28N 49°17' W 123°06'0 0.0
2015-Jun-27 14:34N 49°17' W 123°06'0 0.1
2015-Jun-27 13:33N 49°17' W 123°06'9 8.6
2015-Jun-27 12:33N 49°18' W 123°19'1111.2
2015-Jun-27 11:33N 49°18' W 123°37'1111.4
2015-Jun-27 10:33N 49°21' W 123°54'1111.4
2015-Jun-27 09:33N 49°24' W 124°10'1211.5
2015-Jun-27 08:33N 49°28' W 124°27'1211.8
2015-Jun-27 07:33N 49°37' W 124°39'1211.9
2015-Jun-27 06:33N 49°46' W 124°52'1211.3
2015-Jun-27 05:32N 49°54' W 125°04'1211.9
2015-Jun-27 04:31N 50°04' W 125°15'1212.7
2015-Jun-27 03:33N 50°15' W 125°23'4615.3
2015-Jun-27 00:33N 50°30' W 126°31'1615.5
2015-Jun-26 23:30N 50°35' W 126°56'1313.4
2015-Jun-26 22:33N 50°40' W 127°14'1716.9
2015-Jun-26 21:33N 50°52' W 127°33'1515.2
2015-Jun-26 20:34N 51°01' W 127°51'1616.4
2015-Jun-26 19:33N 51°09' W 128°14'  
2015-Jun-22 18:31N 58°42' W 136°14'1515.6
2015-Jun-22 17:33N 58°29' W 136°03'9 9.0
2015-Jun-22 16:33N 58°20' W 136°06'12610.9
2015-Jun-22 05:00N 59°18' W 139°42'65 6.5 290 / 201020.410.8 1.513.011.312.0
2015-Jun-21 19:00N 59°30' W 141°48'   290 / 121024.910.8 1.015.011.614.0
2015-Jun-19 06:00N 58°36' W 139°12'9717.3 130 / 81017.610.8 0.513.510.915.0
2015-Jun-19 00:25N 58°19' W 136°10'911.0
2015-Jun-18 23:33N 58°27' W 136°01'1515.0
2015-Jun-18 22:33N 58°41' W 136°11'  

Dump ship's entire track history